Time;durP1;ratioP1;P1;durP2;ratioP2;P2;SDS_P1;SDS_P2;PMS_P1;PMS_P2;Temp;Humidity;BMP_temperature;BMP_pressure;BME280_temperature;BME280_humidity;BME280_pressure;Samples;Min_cycle;Max_cycle;Signal;HPM_P1;HPM_P2
2024/03/08 00:01:45;;;;;;;39.97;25.55;;;3.60;99.90;;;;;;5125048;27;20124;-61
2024/03/08 00:04:10;;;;;;;44.33;26.25;;;3.50;99.90;;;;;;5128438;27;20098;-62
2024/03/08 00:06:36;;;;;;;42.67;25.20;;;3.50;99.90;;;;;;5120068;27;20039;-62
2024/03/08 00:09:02;;;;;;;42.15;25.95;;;3.50;99.90;;;;;;5122545;27;20542;-61
2024/03/08 00:11:28;;;;;;;43.60;26.48;;;3.50;99.90;;;;;;5121543;27;20525;-62
2024/03/08 00:13:53;;;;;;;50.53;27.20;;;3.50;99.90;;;;;;5125649;27;20050;-62
2024/03/08 00:16:19;;;;;;;42.72;26.23;;;3.50;99.90;;;;;;5123766;27;20046;-61
2024/03/08 00:18:45;;;;;;;43.83;28.35;;;3.40;99.90;;;;;;5128605;27;20498;-62
2024/03/08 00:21:11;;;;;;;45.90;27.45;;;3.40;99.90;;;;;;5120460;27;20099;-59
2024/03/08 00:23:37;;;;;;;47.85;27.27;;;3.50;99.90;;;;;;5122195;27;20050;-61
2024/03/08 00:26:04;;;;;;;47.47;27.45;;;3.50;99.90;;;;;;5119585;27;20492;-63
2024/03/08 00:28:30;;;;;;;46.08;26.77;;;3.40;99.90;;;;;;5121494;27;20047;-61
2024/03/08 00:30:56;;;;;;;44.42;26.92;;;3.40;99.90;;;;;;5125255;27;20039;-62
2024/03/08 00:33:22;;;;;;;51.95;29.17;;;3.40;99.90;;;;;;5121133;27;20490;-61
2024/03/08 00:35:48;;;;;;;45.45;27.45;;;3.40;99.90;;;;;;5123211;27;20601;-62
2024/03/08 00:38:14;;;;;;;48.63;27.55;;;3.40;99.90;;;;;;5123555;27;20031;-61
2024/03/08 00:40:40;;;;;;;47.88;28.40;;;3.30;99.90;;;;;;5123876;27;20050;-61
2024/03/08 00:43:06;;;;;;;48.33;27.10;;;3.30;99.90;;;;;;5123214;27;20495;-61
2024/03/08 00:45:32;;;;;;;54.13;27.90;;;3.20;99.90;;;;;;5123201;27;20043;-61
2024/03/08 00:47:57;;;;;;;48.00;27.00;;;3.20;99.90;;;;;;5123048;27;20041;-61
2024/03/08 00:50:23;;;;;;;46.55;26.70;;;3.30;99.90;;;;;;5121285;27;20049;-62
2024/03/08 00:52:50;;;;;;;49.53;28.75;;;3.20;99.90;;;;;;5121449;27;20873;-62
2024/03/08 00:55:15;;;;;;;47.17;27.48;;;3.20;99.90;;;;;;5124527;27;20512;-62
2024/03/08 00:57:41;;;;;;;44.65;26.77;;;3.20;99.90;;;;;;5125248;27;20039;-61
2024/03/08 01:00:11;;;;;;;46.53;26.83;;;3.10;99.90;;;;;;5122626;27;20043;-61
2024/03/08 01:02:37;;;;;;;47.53;28.13;;;3.10;99.90;;;;;;5123747;27;20483;-62
2024/03/08 01:05:07;;;;;;;48.42;27.58;;;3.10;99.90;;;;;;5121968;27;20050;-62
2024/03/08 01:07:34;;;;;;;46.22;26.35;;;3.00;99.90;;;;;;5119810;27;20517;-62
2024/03/08 01:10:03;;;;;;;48.40;27.35;;;3.00;99.90;;;;;;5120700;27;20562;-62
2024/03/08 01:12:29;;;;;;;48.72;27.70;;;3.00;99.90;;;;;;5120154;27;20240;-62
2024/03/08 01:14:57;;;;;;;46.53;27.27;;;2.90;99.90;;;;;;5123523;27;20039;-62
2024/03/08 01:17:24;;;;;;;44.28;27.25;;;3.00;99.90;;;;;;5123304;27;20471;-61
2024/03/08 01:19:49;;;;;;;47.33;25.95;;;2.90;99.90;;;;;;5120027;27;20058;-62
2024/03/08 01:22:15;;;;;;;45.10;27.60;;;2.90;99.90;;;;;;5121361;27;20034;-62
2024/03/08 01:24:41;;;;;;;46.90;27.45;;;2.90;99.90;;;;;;5120102;27;20107;-62
2024/03/08 01:27:09;;;;;;;48.10;28.52;;;2.90;99.90;;;;;;5126067;27;20092;-62
2024/03/08 01:29:35;;;;;;;45.15;27.05;;;2.80;99.90;;;;;;5118495;27;20090;-61
2024/03/08 01:32:01;;;;;;;43.15;27.13;;;2.80;99.90;;;;;;5120309;27;20117;-61
2024/03/08 01:34:28;;;;;;;48.85;28.40;;;2.80;99.90;;;;;;5120336;27;20047;-61
2024/03/08 01:36:56;;;;;;;51.97;28.58;;;2.80;99.90;;;;;;5122344;27;20432;-61
2024/03/08 01:39:22;;;;;;;51.40;26.85;;;2.80;99.90;;;;;;5120678;27;20039;-61
2024/03/08 01:41:48;;;;;;;49.70;26.58;;;2.70;99.90;;;;;;5122881;27;20041;-61
2024/03/08 01:44:17;;;;;;;50.22;27.75;;;2.70;99.90;;;;;;5117451;27;20087;-61
2024/03/08 01:46:47;;;;;;;49.63;27.52;;;2.70;99.90;;;;;;5123460;27;20047;-61
2024/03/08 01:49:13;;;;;;;49.40;26.52;;;2.70;99.90;;;;;;5120314;27;20397;-61
2024/03/08 01:51:41;;;;;;;49.53;27.58;;;2.60;99.90;;;;;;5112451;28;20055;-61
2024/03/08 01:54:09;;;;;;;49.80;26.75;;;2.70;99.90;;;;;;5118760;27;20122;-62
2024/03/08 01:56:37;;;;;;;42.15;25.98;;;2.70;99.90;;;;;;5121552;27;20564;-61
2024/03/08 01:59:03;;;;;;;52.28;26.83;;;2.60;99.90;;;;;;5122579;27;20076;-62
2024/03/08 02:01:29;;;;;;;46.17;27.77;;;2.60;99.90;;;;;;5124425;27;20139;-63
2024/03/08 02:03:55;;;;;;;42.78;25.90;;;2.60;99.90;;;;;;5121571;27;20031;-61
2024/03/08 02:06:21;;;;;;;43.95;24.60;;;2.60;99.90;;;;;;5120861;27;20417;-61
2024/03/08 02:08:47;;;;;;;48.58;26.08;;;2.60;99.90;;;;;;5122543;27;20070;-61
2024/03/08 02:11:13;;;;;;;43.20;26.15;;;2.60;99.90;;;;;;5119701;27;20043;-61
2024/03/08 02:13:39;;;;;;;46.45;27.33;;;2.60;99.90;;;;;;5119650;27;20053;-62
2024/03/08 02:16:07;;;;;;;50.53;26.27;;;2.50;99.90;;;;;;5121371;27;20493;-61
2024/03/08 02:18:34;;;;;;;45.88;26.02;;;2.50;99.90;;;;;;5122052;27;20043;-61
2024/03/08 02:21:04;;;;;;;44.47;26.27;;;2.50;99.90;;;;;;5120244;27;20043;-61
2024/03/08 02:23:31;;;;;;;42.95;26.05;;;2.50;99.90;;;;;;5121263;27;20039;-61
2024/03/08 02:25:57;;;;;;;47.40;26.55;;;2.60;99.90;;;;;;5120686;27;20052;-61
2024/03/08 02:28:27;;;;;;;47.10;25.58;;;2.50;99.90;;;;;;5122490;27;20087;-61
2024/03/08 02:30:55;;;;;;;46.88;25.73;;;2.50;99.90;;;;;;5120816;27;20054;-61
2024/03/08 02:33:22;;;;;;;43.00;26.17;;;2.50;99.90;;;;;;5122516;27;20796;-61
2024/03/08 02:35:48;;;;;;;45.30;25.30;;;2.50;99.90;;;;;;5119772;27;20489;-61
2024/03/08 02:38:16;;;;;;;47.25;26.20;;;2.40;99.90;;;;;;5125621;27;20034;-61
2024/03/08 02:40:45;;;;;;;40.40;23.85;;;2.40;99.90;;;;;;5123822;27;20042;-62
2024/03/08 02:43:14;;;;;;;44.42;25.58;;;2.50;99.90;;;;;;5124197;27;20043;-61
2024/03/08 02:45:46;;;;;;;48.50;26.17;;;2.40;99.90;;;;;;5125065;27;20501;-61
2024/03/08 02:48:14;;;;;;;43.80;25.65;;;2.40;99.90;;;;;;5123419;27;20047;-61
2024/03/08 02:50:40;;;;;;;40.17;24.25;;;2.40;99.90;;;;;;5126511;27;20076;-61
2024/03/08 02:53:06;;;;;;;39.05;25.40;;;2.30;99.90;;;;;;5122941;27;20537;-62
2024/03/08 02:55:35;;;;;;;43.58;25.13;;;2.30;99.90;;;;;;5120839;27;20036;-62
2024/03/08 02:58:03;;;;;;;;;;;2.30;99.90;;;;;;5117028;27;20048;-61
2024/03/08 03:00:30;;;;;;;44.45;23.50;;;2.30;99.90;;;;;;5114126;27;19919;-61
2024/03/08 03:02:56;;;;;;;38.22;23.90;;;2.30;99.90;;;;;;5118213;27;20043;-61
2024/03/08 03:05:23;;;;;;;40.42;25.00;;;2.20;99.90;;;;;;5120486;27;20045;-61
2024/03/08 03:07:52;;;;;;;43.38;23.92;;;2.20;99.90;;;;;;5124162;27;20357;-61
2024/03/08 03:10:18;;;;;;;47.25;25.42;;;2.20;99.90;;;;;;5124456;27;20039;-62
2024/03/08 03:12:45;;;;;;;40.35;24.30;;;1.80;99.90;;;;;;5125128;27;20066;-61
2024/03/08 03:15:12;;;;;;;47.90;25.10;;;2.20;99.90;;;;;;5126105;27;20049;-61
2024/03/08 03:17:40;;;;;;;40.42;23.40;;;2.20;99.90;;;;;;5121331;27;20039;-62
2024/03/08 03:20:12;;;;;;;38.53;23.55;;;2.20;99.90;;;;;;5117474;27;20050;-61
2024/03/08 03:22:38;;;;;;;41.78;22.80;;;2.20;99.90;;;;;;5119889;27;20118;-61
2024/03/08 03:25:06;;;;;;;38.17;24.65;;;2.10;99.90;;;;;;5122620;27;20106;-61
2024/03/08 03:27:32;;;;;;;47.35;24.35;;;2.10;99.90;;;;;;5120946;27;20118;-63
2024/03/08 03:29:58;;;;;;;42.70;23.80;;;2.10;99.90;;;;;;5123356;27;20410;-61
2024/03/08 03:32:24;;;;;;;43.65;24.27;;;2.10;99.90;;;;;;5120115;27;20039;-61
2024/03/08 03:34:53;;;;;;;43.03;24.02;;;2.10;99.90;;;;;;5124740;27;20049;-62
2024/03/08 03:37:19;;;;;;;45.83;25.25;;;2.00;99.90;;;;;;5126373;27;20073;-61
2024/03/08 03:39:48;;;;;;;41.20;24.20;;;2.10;99.90;;;;;;5122808;27;20039;-61
2024/03/08 03:42:18;;;;;;;42.47;24.42;;;2.00;99.90;;;;;;5120444;27;20051;-61
2024/03/08 03:44:47;;;;;;;;;;;2.00;99.90;;;;;;5125450;27;20046;-61
2024/03/08 03:47:14;;;;;;;41.53;24.25;;;2.00;99.90;;;;;;5124057;27;19919;-62
2024/03/08 03:49:43;;;;;;;41.53;23.77;;;2.00;99.90;;;;;;5127512;27;20043;-62
2024/03/08 03:52:10;;;;;;;44.22;22.90;;;2.00;99.90;;;;;;5126831;27;20050;-61
2024/03/08 03:54:36;;;;;;;41.53;22.15;;;1.60;99.90;;;;;;5114999;27;20057;-62
2024/03/08 03:57:02;;;;;;;43.83;23.58;;;2.00;99.90;;;;;;5127800;27;20027;-61
2024/03/08 03:59:29;;;;;;;40.35;23.48;;;1.90;99.90;;;;;;5127171;27;20038;-61
2024/03/08 04:01:55;;;;;;;42.90;24.33;;;1.90;99.90;;;;;;5111758;27;20532;-61
2024/03/08 04:04:24;;;;;;;40.63;22.70;;;1.90;99.90;;;;;;5124249;27;20023;-61
2024/03/08 04:06:51;;;;;;;37.10;23.17;;;1.80;99.90;;;;;;5121246;27;20047;-62
2024/03/08 04:09:19;;;;;;;36.22;22.88;;;1.90;99.90;;;;;;5119258;27;20135;-61
2024/03/08 04:11:45;;;;;;;41.45;22.83;;;1.80;99.90;;;;;;5109998;27;20093;-61
2024/03/08 04:14:11;;;;;;;37.83;22.23;;;1.80;99.90;;;;;;5120762;27;20034;-62
2024/03/08 04:16:37;;;;;;;43.40;23.20;;;1.80;99.90;;;;;;5124191;27;20497;-61
2024/03/08 04:19:04;;;;;;;37.95;22.63;;;1.70;99.90;;;;;;5124265;27;20040;-61
2024/03/08 04:21:33;;;;;;;41.63;23.77;;;1.80;99.90;;;;;;5122987;27;20049;-62
2024/03/08 04:23:58;;;;;;;37.15;22.15;;;1.80;99.90;;;;;;5120227;27;20544;-62
2024/03/08 04:26:25;;;;;;;39.28;23.42;;;1.70;99.90;;;;;;5119505;27;20043;-61
2024/03/08 04:28:51;;;;;;;38.97;22.17;;;1.70;99.90;;;;;;5117083;27;20065;-61
2024/03/08 04:31:17;;;;;;;39.42;23.42;;;1.70;99.90;;;;;;5115038;27;21741;-61
2024/03/08 04:33:44;;;;;;;39.70;22.33;;;1.70;99.90;;;;;;5125273;27;20065;-61
2024/03/08 04:36:13;;;;;;;43.08;23.10;;;1.70;99.90;;;;;;5121588;27;20046;-61
2024/03/08 04:38:40;;;;;;;41.42;22.75;;;1.70;99.90;;;;;;5119728;27;20338;-61
2024/03/08 04:41:07;;;;;;;41.15;22.63;;;1.70;99.90;;;;;;5120259;27;20506;-61
2024/03/08 04:43:34;;;;;;;44.92;24.02;;;1.70;99.90;;;;;;5118701;27;20051;-62
2024/03/08 04:46:00;;;;;;;38.45;22.08;;;1.70;99.90;;;;;;5119181;27;20522;-61
2024/03/08 04:48:26;;;;;;;38.08;21.95;;;1.70;99.90;;;;;;5113838;27;20940;-61
2024/03/08 04:50:53;;;;;;;40.10;23.50;;;1.60;99.90;;;;;;5116429;27;20122;-61
2024/03/08 04:53:20;;;;;;;39.15;23.00;;;1.60;99.90;;;;;;5118363;27;20046;-62
2024/03/08 04:55:45;;;;;;;39.05;21.52;;;1.60;99.90;;;;;;5116336;27;20035;-61
2024/03/08 04:58:11;;;;;;;39.58;21.95;;;1.60;99.90;;;;;;5113759;27;20045;-61
2024/03/08 05:00:37;;;;;;;37.80;21.77;;;1.60;99.90;;;;;;5118138;27;20169;-61
2024/03/08 05:03:04;;;;;;;34.58;21.27;;;1.60;99.90;;;;;;5123477;27;20038;-62
2024/03/08 05:05:30;;;;;;;36.92;22.55;;;1.50;99.90;;;;;;5122658;27;20109;-61
2024/03/08 05:07:56;;;;;;;39.92;22.30;;;1.50;99.90;;;;;;5121298;27;20039;-62
2024/03/08 05:10:22;;;;;;;39.95;22.27;;;1.50;99.90;;;;;;5121723;27;20046;-61
2024/03/08 05:12:48;;;;;;;46.38;21.77;;;1.50;99.90;;;;;;5122899;27;20126;-61
2024/03/08 05:15:14;;;;;;;40.83;22.42;;;1.50;99.90;;;;;;5124787;27;20074;-61
2024/03/08 05:17:40;;;;;;;39.60;22.30;;;1.50;99.90;;;;;;5119369;27;20033;-61
2024/03/08 05:20:12;;;;;;;34.85;22.05;;;1.50;99.90;;;;;;5123676;27;20043;-62
2024/03/08 05:22:38;;;;;;;40.28;21.70;;;1.50;99.90;;;;;;5123157;27;20070;-62
2024/03/08 05:25:04;;;;;;;40.80;23.33;;;1.40;99.90;;;;;;5123322;27;20118;-62
2024/03/08 05:27:30;;;;;;;36.90;21.33;;;1.40;99.90;;;;;;5121446;27;20047;-62
2024/03/08 05:29:55;;;;;;;37.03;21.48;;;1.40;99.90;;;;;;5121918;27;20045;-62
2024/03/08 05:32:21;;;;;;;40.30;23.02;;;1.40;99.90;;;;;;5122796;27;20081;-62
2024/03/08 05:34:47;;;;;;;38.25;21.65;;;1.20;99.90;;;;;;5121066;27;20408;-62
2024/03/08 05:37:12;;;;;;;36.35;21.85;;;1.40;99.90;;;;;;5120534;27;20038;-62
2024/03/08 05:39:38;;;;;;;39.08;22.20;;;1.30;99.90;;;;;;5121222;27;20054;-62
2024/03/08 05:42:04;;;;;;;38.97;22.10;;;1.30;99.90;;;;;;5122136;27;20086;-62
2024/03/08 05:44:30;;;;;;;38.55;22.05;;;1.40;99.90;;;;;;5126014;27;20309;-62
2024/03/08 05:46:56;;;;;;;36.47;20.88;;;1.40;99.90;;;;;;5127639;27;20039;-61
2024/03/08 05:49:22;;;;;;;38.92;21.10;;;1.40;99.90;;;;;;5114758;28;20100;-62
2024/03/08 05:51:48;;;;;;;33.78;20.25;;;1.40;99.90;;;;;;5127620;27;20107;-62
2024/03/08 05:54:14;;;;;;;39.00;22.25;;;1.30;99.90;;;;;;5118886;27;20114;-62
2024/03/08 05:56:43;;;;;;;36.10;21.58;;;1.30;99.90;;;;;;5115097;27;20035;-62
2024/03/08 05:59:10;;;;;;;35.13;21.90;;;1.30;99.90;;;;;;5122789;27;20441;-62
2024/03/08 06:01:36;;;;;;;41.00;22.02;;;1.30;99.90;;;;;;5120471;27;20165;-62
2024/03/08 06:04:03;;;;;;;35.33;20.40;;;1.30;99.90;;;;;;5115057;27;20562;-62
2024/03/08 06:06:29;;;;;;;40.35;22.73;;;1.30;99.90;;;;;;5123259;27;20050;-62
2024/03/08 06:08:59;;;;;;;36.72;21.73;;;1.30;99.90;;;;;;5114554;27;20954;-62
2024/03/08 06:11:28;;;;;;;35.75;21.00;;;1.30;99.90;;;;;;5113618;27;20114;-62
2024/03/08 06:13:59;;;;;;;;;;;1.30;99.90;;;;;;5119658;27;20079;-62
2024/03/08 06:16:28;;;;;;;41.00;21.25;;;1.30;99.90;;;;;;5118527;27;19920;-62
2024/03/08 06:18:57;;;;;;;34.22;20.42;;;1.20;99.90;;;;;;5120699;27;20520;-62
2024/03/08 06:21:25;;;;;;;38.67;23.30;;;1.30;99.90;;;;;;5134105;27;20041;-62
2024/03/08 06:23:54;;;;;;;51.30;21.92;;;1.30;99.90;;;;;;5130869;27;20039;-62
2024/03/08 06:26:24;;;;;;;39.55;22.17;;;1.30;99.90;;;;;;5125514;27;20039;-62
2024/03/08 06:28:50;;;;;;;34.13;20.80;;;1.30;99.90;;;;;;5113610;27;20100;-62
2024/03/08 06:31:16;;;;;;;41.65;20.55;;;1.30;99.90;;;;;;5114948;27;20035;-61
2024/03/08 06:33:42;;;;;;;31.55;19.70;;;1.30;99.90;;;;;;5119550;27;20104;-61
2024/03/08 06:36:11;;;;;;;41.00;21.58;;;1.30;99.90;;;;;;5126544;27;20515;-61
2024/03/08 06:38:42;;;;;;;48.53;21.35;;;1.30;99.90;;;;;;5118499;27;20374;-61
2024/03/08 06:41:15;;;;;;;35.45;20.58;;;1.40;99.90;;;;;;5115947;27;20047;-62
2024/03/08 06:43:41;;;;;;;36.85;19.85;;;1.30;99.90;;;;;;5121712;27;20042;-62
2024/03/08 06:46:07;;;;;;;38.50;20.75;;;1.50;99.90;;;;;;5123313;27;20039;-62
2024/03/08 06:48:33;;;;;;;34.67;20.17;;;1.50;99.90;;;;;;5122444;27;20039;-61
2024/03/08 06:50:59;;;;;;;35.55;20.95;;;1.50;99.90;;;;;;5126794;27;21230;-62
2024/03/08 06:53:25;;;;;;;34.10;20.50;;;1.50;99.90;;;;;;5125688;27;20118;-61
2024/03/08 06:55:51;;;;;;;39.40;20.75;;;1.50;99.90;;;;;;5130044;27;20225;-62
2024/03/08 06:58:16;;;;;;;38.42;22.33;;;1.60;99.90;;;;;;5128689;27;20063;-61
2024/03/08 07:00:43;;;;;;;36.05;21.33;;;1.60;99.90;;;;;;5128492;27;20641;-61
2024/03/08 07:03:12;;;;;;;38.05;19.40;;;1.70;99.90;;;;;;5133001;27;20051;-61
2024/03/08 07:05:40;;;;;;;36.42;21.08;;;1.70;99.90;;;;;;5130202;27;20525;-61
2024/03/08 07:08:06;;;;;;;35.17;20.02;;;1.70;99.90;;;;;;5130278;27;20404;-61
2024/03/08 07:10:32;;;;;;;38.00;21.02;;;1.80;99.90;;;;;;5126678;27;20035;-62
2024/03/08 07:12:57;;;;;;;34.22;20.45;;;1.90;99.90;;;;;;5128180;27;20038;-61
2024/03/08 07:15:23;;;;;;;39.20;21.30;;;1.90;99.90;;;;;;5126520;27;20035;-61
2024/03/08 07:17:52;;;;;;;32.53;19.75;;;1.70;99.90;;;;;;5128780;27;20062;-61
2024/03/08 07:20:19;;;;;;;35.97;20.50;;;2.00;99.90;;;;;;5125265;27;20477;-62
2024/03/08 07:22:50;;;;;;;35.97;21.33;;;2.10;99.90;;;;;;5129011;27;20050;-61
2024/03/08 07:27:52;;;;;;;35.25;20.70;;;2.20;99.90;;;;;;5129226;27;20050;-61
2024/03/08 07:33:04;;;;;;;34.03;20.67;;;2.40;99.90;;;;;;5129599;27;20059;-61
2024/03/08 07:35:31;;;;;;;43.20;21.67;;;2.70;99.90;;;;;;5126018;27;20533;-61
2024/03/08 07:37:57;;;;;;;31.52;20.25;;;2.80;99.90;;;;;;5125283;27;20181;-62
2024/03/08 07:40:23;;;;;;;35.08;20.40;;;3.00;99.90;;;;;;5127267;27;20039;-61
2024/03/08 07:42:52;;;;;;;32.88;19.10;;;3.20;99.90;;;;;;5128938;27;20424;-61
2024/03/08 07:45:18;;;;;;;36.22;19.80;;;3.30;99.90;;;;;;5125172;27;20035;-62
2024/03/08 07:47:44;;;;;;;33.08;19.67;;;3.60;99.90;;;;;;5127803;27;20043;-61
2024/03/08 07:50:10;;;;;;;34.33;20.05;;;3.70;99.90;;;;;;5128137;27;20489;-61
2024/03/08 07:52:36;;;;;;;33.40;18.75;;;4.00;99.90;;;;;;5127268;27;20042;-62
2024/03/08 07:55:05;;;;;;;36.20;19.17;;;4.20;99.90;;;;;;5127100;27;20039;-61
2024/03/08 07:57:32;;;;;;;31.35;18.58;;;4.40;99.90;;;;;;5125435;27;20318;-61
2024/03/08 07:59:58;;;;;;;30.08;19.63;;;4.70;99.90;;;;;;5116212;27;20921;-61
2024/03/08 08:02:23;;;;;;;33.67;19.83;;;4.70;99.90;;;;;;5127240;27;20039;-61
2024/03/08 08:04:49;;;;;;;34.90;20.17;;;5.00;99.90;;;;;;5127870;27;20061;-61
2024/03/08 08:07:15;;;;;;;31.60;19.60;;;5.30;99.90;;;;;;5127585;27;20041;-61
2024/03/08 08:09:42;;;;;;;34.40;21.20;;;5.30;99.90;;;;;;5128570;27;20133;-61
2024/03/08 08:12:12;;;;;;;31.95;19.67;;;5.40;99.90;;;;;;5127721;27;20555;-61
2024/03/08 08:14:38;;;;;;;31.15;19.65;;;5.70;99.90;;;;;;5126833;27;20401;-61
2024/03/08 08:17:05;;;;;;;31.55;19.20;;;5.70;99.90;;;;;;5126184;27;20421;-61
2024/03/08 08:19:31;;;;;;;31.02;21.20;;;5.90;99.90;;;;;;5129119;27;20420;-61
2024/03/08 08:21:58;;;;;;;31.33;21.00;;;5.80;99.90;;;;;;5126424;27;20050;-61
2024/03/08 08:24:24;;;;;;;29.85;19.77;;;6.10;99.90;;;;;;5125370;27;20188;-62
2024/03/08 08:26:50;;;;;;;28.88;20.00;;;6.10;99.90;;;;;;5129426;27;20050;-61
2024/03/08 08:29:16;;;;;;;34.85;21.10;;;6.00;99.90;;;;;;5128068;27;20422;-61
2024/03/08 08:31:42;;;;;;;32.38;21.40;;;6.40;99.90;;;;;;5128596;27;20501;-62
2024/03/08 08:34:11;;;;;;;30.33;21.10;;;6.50;99.90;;;;;;5124011;27;20345;-61
2024/03/08 08:36:38;;;;;;;34.22;20.42;;;6.60;99.90;;;;;;5128694;27;20035;-61
2024/03/08 08:39:11;;;;;;;32.22;21.67;;;6.90;99.90;;;;;;5127161;27;20046;-61
2024/03/08 08:41:37;;;;;;;35.40;21.73;;;6.80;99.90;;;;;;5125308;27;20031;-62
2024/03/08 08:44:02;;;;;;;34.22;20.90;;;6.80;99.90;;;;;;5127178;27;20046;-61
2024/03/08 08:46:28;;;;;;;28.63;19.65;;;7.10;99.90;;;;;;5129078;27;20047;-60
2024/03/08 08:48:54;;;;;;;28.30;18.90;;;7.00;99.90;;;;;;5127327;27;20095;-61
2024/03/08 08:51:20;;;;;;;28.20;20.48;;;7.00;99.90;;;;;;5127590;27;20088;-61
2024/03/08 08:53:47;;;;;;;31.10;20.83;;;7.20;99.90;;;;;;5128092;27;20042;-61
2024/03/08 08:56:13;;;;;;;31.10;21.55;;;7.20;99.90;;;;;;5128719;27;20042;-61
2024/03/08 08:58:43;;;;;;;35.80;21.17;;;7.30;99.90;;;;;;5127331;27;20062;-61
2024/03/08 09:01:12;;;;;;;28.15;20.27;;;7.40;99.90;;;;;;5126014;27;20394;-61
2024/03/08 09:03:40;;;;;;;26.73;19.85;;;7.30;99.90;;;;;;5126043;27;20473;-62
2024/03/08 09:06:09;;;;;;;28.48;19.08;;;7.40;99.90;;;;;;5129156;27;20501;-61
2024/03/08 09:08:42;;;;;;;31.05;20.48;;;7.40;99.90;;;;;;5125065;27;20126;-61
2024/03/08 09:11:07;;;;;;;28.08;18.10;;;7.90;99.90;;;;;;5127004;27;20046;-62
2024/03/08 09:13:33;;;;;;;27.38;19.25;;;7.90;99.90;;;;;;5126986;27;20226;-60
2024/03/08 09:16:00;;;;;;;25.85;19.25;;;8.00;99.90;;;;;;5126954;27;20489;-61
2024/03/08 09:18:26;;;;;;;28.75;19.95;;;7.90;99.90;;;;;;5127018;27;20429;-61
2024/03/08 09:20:53;;;;;;;26.77;19.35;;;8.00;99.90;;;;;;5123633;27;20042;-62
2024/03/08 09:23:22;;;;;;;30.42;20.73;;;7.80;99.90;;;;;;5127234;27;20311;-62
2024/03/08 09:25:48;;;;;;;31.13;19.83;;;7.70;99.90;;;;;;5125444;27;20034;-62
2024/03/08 09:28:14;;;;;;;28.92;20.48;;;7.80;99.90;;;;;;5126835;27;20066;-62
2024/03/08 09:30:40;;;;;;;29.25;20.20;;;7.70;99.90;;;;;;5125261;27;20557;-62
2024/03/08 09:33:06;;;;;;;26.70;20.17;;;7.60;99.90;;;;;;5128274;27;20045;-62
2024/03/08 09:35:32;;;;;;;28.77;19.92;;;7.70;99.90;;;;;;5125943;27;20397;-61
2024/03/08 09:37:58;;;;;;;32.65;21.73;;;7.70;99.90;;;;;;5127609;27;20039;-62
2024/03/08 09:40:25;;;;;;;27.58;20.45;;;7.80;99.90;;;;;;5128023;27;20060;-61
2024/03/08 09:42:52;;;;;;;28.50;20.60;;;7.50;99.90;;;;;;5124908;27;20053;-62
2024/03/08 09:45:22;;;;;;;30.00;21.60;;;7.50;99.90;;;;;;5124228;27;20035;-62
2024/03/08 09:47:48;;;;;;;28.90;19.98;;;7.60;99.90;;;;;;5124748;27;20042;-62
2024/03/08 09:50:15;;;;;;;29.83;21.40;;;7.50;99.90;;;;;;5125692;27;20395;-61
2024/03/08 09:52:47;;;;;;;30.75;21.42;;;7.30;99.90;;;;;;5130040;27;20734;-62
2024/03/08 09:55:13;;;;;;;36.47;21.50;;;7.40;99.90;;;;;;5128145;27;20050;-62
2024/03/08 09:58:16;;;;;;;29.73;20.35;;;7.30;99.90;;;;;;5126294;27;20559;-62
2024/03/08 10:00:30;;;;;;;30.35;21.38;;;7.40;99.90;;;;;;5124996;27;20051;-62
2024/03/08 10:03:01;;;;;;;32.65;21.67;;;7.50;99.90;;;;;;5125596;27;20035;-62
2024/03/08 10:05:27;;;;;;;32.38;20.63;;;7.70;99.90;;;;;;5127482;27;20035;-62
2024/03/08 10:07:53;;;;;;;30.23;21.42;;;7.80;99.90;;;;;;5128942;27;20046;-62
2024/03/08 10:10:18;;;;;;;34.60;22.52;;;7.80;99.90;;;;;;5127429;27;20213;-62
2024/03/08 10:12:46;;;;;;;34.55;22.67;;;7.80;99.90;;;;;;5125272;27;20027;-62
2024/03/08 10:15:16;;;;;;;29.63;21.60;;;7.80;99.90;;;;;;5129434;27;20468;-62
2024/03/08 10:17:43;;;;;;;31.90;22.75;;;7.70;99.90;;;;;;5124819;27;20082;-62
2024/03/08 10:20:18;;;;;;;29.52;22.02;;;7.70;99.90;;;;;;5126744;27;20039;-62
2024/03/08 10:22:45;;;;;;;32.40;22.48;;;7.70;99.90;;;;;;5123642;27;20071;-62
2024/03/08 10:25:11;;;;;;;30.20;22.20;;;7.60;99.90;;;;;;5124470;27;20048;-62
2024/03/08 10:27:40;;;;;;;31.65;20.90;;;7.70;99.90;;;;;;5127959;27;20049;-62
2024/03/08 10:30:10;;;;;;;;;;;7.90;99.90;;;;;;5125009;27;20092;-62
2024/03/08 10:32:35;;;;;;;31.42;21.58;;;7.90;99.90;;;;;;5125016;27;19922;-62
2024/03/08 10:35:01;;;;;;;32.15;21.10;;;8.00;99.90;;;;;;5124197;27;20034;-62
2024/03/08 10:37:29;;;;;;;30.42;21.38;;;8.00;99.90;;;;;;5125191;27;20028;-62
2024/03/08 10:40:10;;;;;;;35.72;21.85;;;8.20;99.90;;;;;;5126292;27;20095;-63
2024/03/08 10:42:42;;;;;;;30.08;21.15;;;8.30;99.90;;;;;;5124735;27;20043;-61
2024/03/08 10:45:34;;;;;;;29.77;21.65;;;8.40;99.90;;;;;;5126128;27;20091;-61
2024/03/08 10:48:32;;;;;;;31.70;23.23;;;8.30;99.90;;;;;;5120095;27;20042;-61
2024/03/08 10:51:05;;;;;;;28.92;21.25;;;8.30;99.90;;;;;;5125369;27;20435;-61
2024/03/08 10:53:31;;;;;;;33.22;22.10;;;8.20;99.90;;;;;;5122532;27;20138;-61
2024/03/08 10:55:57;;;;;;;30.40;22.67;;;8.30;99.90;;;;;;5125709;27;20061;-61
2024/03/08 10:58:27;;;;;;;30.42;22.13;;;8.20;99.90;;;;;;5126417;27;20039;-61
2024/03/08 11:00:56;;;;;;;28.67;21.38;;;8.50;99.90;;;;;;5128154;27;20035;-61
2024/03/08 11:03:41;;;;;;;29.35;21.55;;;8.50;99.90;;;;;;5128187;27;20035;-61
2024/03/08 11:06:29;;;;;;;30.38;21.38;;;8.70;99.90;;;;;;5130849;27;20790;-61
2024/03/08 11:08:55;;;;;;;32.08;22.88;;;8.40;99.90;;;;;;5128567;27;20048;-61
2024/03/08 11:11:32;;;;;;;31.75;22.00;;;8.90;99.90;;;;;;5129052;27;20038;-61
2024/03/08 11:13:59;;;;;;;31.88;21.92;;;9.10;99.90;;;;;;5126778;27;20094;-61
2024/03/08 11:16:28;;;;;;;34.58;22.85;;;9.30;99.90;;;;;;5129226;27;20420;-61
2024/03/08 11:18:59;;;;;;;29.67;21.92;;;9.50;99.90;;;;;;5128609;27;20081;-61
2024/03/08 11:21:26;;;;;;;33.17;23.50;;;9.40;99.90;;;;;;5129268;27;20417;-60
2024/03/08 11:24:11;;;;;;;29.17;21.80;;;9.50;99.90;;;;;;5129166;27;20369;-61
2024/03/08 11:26:38;;;;;;;29.25;21.58;;;9.60;99.90;;;;;;5129500;27;20517;-62
2024/03/08 11:29:43;;;;;;;29.55;22.35;;;9.70;99.90;;;;;;5127592;27;20042;-61
2024/03/08 11:32:17;;;;;;;29.90;21.88;;;9.80;99.90;;;;;;5075523;28;20123;-60
2024/03/08 11:34:47;;;;;;;29.67;22.23;;;9.70;99.90;;;;;;5075388;28;20040;-61
2024/03/08 11:37:15;;;;;;;30.13;21.65;;;9.60;99.90;;;;;;5105789;27;20101;-61
2024/03/08 11:39:52;;;;;;;30.25;23.17;;;9.50;99.90;;;;;;5129435;27;20520;-59
2024/03/08 11:42:19;;;;;;;30.85;21.10;;;9.80;99.90;;;;;;5128070;27;20069;-61
2024/03/08 11:44:46;;;;;;;29.77;22.70;;;9.80;99.90;;;;;;5130532;27;20454;-61
2024/03/08 11:47:12;;;;;;;28.85;21.98;;;9.60;99.90;;;;;;5126990;27;20081;-61
2024/03/08 11:49:39;;;;;;;32.35;23.88;;;10.00;99.90;;;;;;5129904;27;20078;-61
2024/03/08 11:52:05;;;;;;;30.40;22.92;;;10.20;99.90;;;;;;5129637;27;20043;-61
2024/03/08 11:54:31;;;;;;;30.17;22.80;;;10.30;99.90;;;;;;5129765;27;20302;-61
2024/03/08 11:57:00;;;;;;;30.83;22.50;;;10.60;99.90;;;;;;5128770;27;20031;-61
2024/03/08 11:59:30;;;;;;;29.42;21.75;;;10.50;99.90;;;;;;5127372;27;20382;-61
2024/03/08 12:02:04;;;;;;;33.75;22.08;;;10.80;99.90;;;;;;5128451;27;20114;-61
2024/03/08 12:04:31;;;;;;;30.77;22.13;;;10.70;99.90;;;;;;5127822;27;20105;-61
2024/03/08 12:07:08;;;;;;;29.80;23.23;;;10.60;99.90;;;;;;5126527;27;20042;-61
2024/03/08 12:09:36;;;;;;;30.10;22.95;;;10.70;99.90;;;;;;5129060;27;20043;-61
2024/03/08 12:12:06;;;;;;;32.45;23.30;;;10.80;99.90;;;;;;5125919;27;20409;-60
2024/03/08 12:14:33;;;;;;;32.17;24.05;;;10.50;99.90;;;;;;5130359;27;20038;-61
2024/03/08 12:17:00;;;;;;;28.80;22.33;;;10.60;99.90;;;;;;5127534;27;20030;-61
2024/03/08 12:19:28;;;;;;;30.30;22.30;;;10.90;99.90;;;;;;5126355;27;20450;-61
2024/03/08 12:21:54;;;;;;;29.48;22.58;;;10.80;99.90;;;;;;5129432;27;20039;-61
2024/03/08 12:24:21;;;;;;;29.88;23.15;;;11.10;99.90;;;;;;5128363;27;20042;-61
2024/03/08 12:26:51;;;;;;;29.40;23.50;;;11.30;99.90;;;;;;5129161;27;20042;-61
2024/03/08 12:29:22;;;;;;;29.40;22.33;;;11.00;99.90;;;;;;5126757;27;20126;-60
2024/03/08 12:31:53;;;;;;;27.98;21.30;;;11.20;99.90;;;;;;5128185;27;20035;-61
2024/03/08 12:34:19;;;;;;;31.02;22.05;;;11.00;99.90;;;;;;5127294;27;20042;-61
2024/03/08 12:36:50;;;;;;;29.98;22.33;;;11.10;99.90;;;;;;5129062;27;20544;-61
2024/03/08 12:39:17;;;;;;;29.42;22.02;;;11.00;99.90;;;;;;5125788;27;20039;-60
2024/03/08 12:41:43;;;;;;;30.77;21.38;;;11.10;99.90;;;;;;5130177;27;20048;-61
2024/03/08 12:44:11;;;;;;;28.02;21.45;;;11.20;99.90;;;;;;5125964;27;20047;-61
2024/03/08 12:46:44;;;;;;;27.27;21.38;;;10.90;99.80;;;;;;5125994;27;20045;-62